createdAt,value
2019-04-21T00:00:58.603Z,15.20
2019-04-21T00:03:33.424Z,15.20
2019-04-21T00:06:18.643Z,15.20
2019-04-21T00:08:51.688Z,15.10
2019-04-21T00:11:25.063Z,15.10
2019-04-21T00:13:47.020Z,15.00
2019-04-21T00:16:10.867Z,15.00
2019-04-21T00:19:01.082Z,14.90
2019-04-21T00:21:34.452Z,14.90
2019-04-21T00:24:30.507Z,14.90
2019-04-21T00:27:03.847Z,14.80
2019-04-21T00:29:38.618Z,14.80
2019-04-21T00:32:06.764Z,14.80
2019-04-21T00:34:21.920Z,14.90
2019-04-21T00:37:03.106Z,14.80
2019-04-21T00:42:13.909Z,14.80
2019-04-21T00:44:38.792Z,14.80
2019-04-21T00:47:26.742Z,14.80
2019-04-21T00:49:56.663Z,14.70
2019-04-21T00:52:52.475Z,14.70
2019-04-21T00:55:29.217Z,14.70
2019-04-21T00:58:06.872Z,14.60
2019-04-21T01:00:33.208Z,14.60
2019-04-21T01:03:02.746Z,14.60
2019-04-21T01:05:52.875Z,14.50
2019-04-21T01:08:10.025Z,14.50
2019-04-21T01:10:32.011Z,14.40
2019-04-21T01:13:16.862Z,14.40
2019-04-21T01:15:49.005Z,14.30
2019-04-21T01:18:16.461Z,14.30
2019-04-21T01:20:27.180Z,14.30
2019-04-21T01:22:57.794Z,14.20
2019-04-21T01:25:35.297Z,14.10
2019-04-21T01:28:18.843Z,14.10
2019-04-21T01:30:53.587Z,14.10
2019-04-21T01:33:26.283Z,14.10
2019-04-21T01:35:54.474Z,14.10
2019-04-21T01:38:34.208Z,14.10
2019-04-21T01:41:08.575Z,14.00
2019-04-21T01:43:31.535Z,14.00
2019-04-21T01:46:06.787Z,14.00
2019-04-21T01:48:36.060Z,13.90
2019-04-21T01:51:05.327Z,13.90
2019-04-21T01:53:55.129Z,13.80
2019-04-21T01:56:44.540Z,13.70
2019-04-21T01:59:07.388Z,13.70
2019-04-21T02:01:52.295Z,13.70
2019-04-21T02:04:29.358Z,13.70
2019-04-21T02:06:57.297Z,13.60
2019-04-21T02:09:38.348Z,13.50
2019-04-21T02:12:14.789Z,13.50
2019-04-21T02:14:50.495Z,13.40
2019-04-21T02:17:20.381Z,13.40
2019-04-21T02:19:41.250Z,13.30
2019-04-21T02:22:25.869Z,13.30
2019-04-21T02:24:57.782Z,13.30
2019-04-21T02:27:23.410Z,13.20
2019-04-21T02:30:05.653Z,13.20
2019-04-21T02:32:48.257Z,13.20
2019-04-21T02:37:44.311Z,13.10
2019-04-21T02:40:15.003Z,13.00
2019-04-21T02:43:07.342Z,13.00
2019-04-21T02:45:22.951Z,13.00
2019-04-21T02:47:59.203Z,13.00
2019-04-21T02:50:24.371Z,13.00
2019-04-21T02:53:03.223Z,12.90
2019-04-21T03:03:34.355Z,12.90
2019-04-21T03:06:39.352Z,12.80
2019-04-21T03:08:59.040Z,12.80
2019-04-21T03:11:49.083Z,12.70
2019-04-21T03:14:13.675Z,12.70
2019-04-21T03:16:31.024Z,12.70
2019-04-21T03:19:06.358Z,12.60
2019-04-21T03:21:38.657Z,12.60
2019-04-21T03:24:29.476Z,12.60
2019-04-21T03:26:48.680Z,12.50
2019-04-21T03:29:22.402Z,12.50
2019-04-21T03:42:07.431Z,12.30
2019-04-21T03:44:32.265Z,12.30
2019-04-21T03:49:45.613Z,12.20
2019-04-21T03:52:19.516Z,12.20
2019-04-21T03:54:42.840Z,12.10
2019-04-21T03:57:17.774Z,12.10
2019-04-21T03:59:47.356Z,12.00
2019-04-21T04:02:27.402Z,12.10
2019-04-21T04:05:15.051Z,12.00
2019-04-21T04:08:02.157Z,12.00
2019-04-21T04:10:26.425Z,12.00
2019-04-21T04:12:57.196Z,11.90
2019-04-21T04:15:45.344Z,11.90
2019-04-21T04:18:05.422Z,11.90
2019-04-21T04:20:37.084Z,11.80
2019-04-21T04:23:08.077Z,11.80
2019-04-21T04:25:33.790Z,11.70
2019-04-21T04:28:28.758Z,11.70
2019-04-21T04:30:45.370Z,11.60
2019-04-21T04:33:20.662Z,11.60
2019-04-21T04:38:22.303Z,11.60
2019-04-21T04:41:16.939Z,11.50
2019-04-21T04:43:47.582Z,11.50
2019-04-21T04:46:33.340Z,11.40
2019-04-21T04:51:25.279Z,11.40
2019-04-21T04:53:47.198Z,11.40
2019-04-21T04:56:39.843Z,11.40
2019-04-21T05:01:54.945Z,11.30
2019-04-21T05:06:41.918Z,11.30
2019-04-21T05:09:11.021Z,11.40
2019-04-21T05:24:10.869Z,11.40
2019-04-21T05:26:37.120Z,11.40
2019-04-21T05:29:08.105Z,11.40
2019-04-21T05:32:13.660Z,11.40
2019-04-21T05:34:31.599Z,11.40
2019-04-21T05:37:25.643Z,11.40
2019-04-21T05:39:55.853Z,11.50
2019-04-21T05:42:30.281Z,11.50
2019-04-21T05:45:10.599Z,11.50
2019-04-21T05:48:06.009Z,11.50
2019-04-21T05:50:30.547Z,11.50
2019-04-21T05:52:53.583Z,11.60
2019-04-21T05:55:49.145Z,11.80
2019-04-21T05:58:08.487Z,12.00
2019-04-21T06:00:59.391Z,12.20
2019-04-21T06:03:17.610Z,12.40
2019-04-21T06:06:00.281Z,12.60
2019-04-21T06:08:17.918Z,12.70
2019-04-21T06:10:53.921Z,12.90
2019-04-21T06:13:31.622Z,13.00
2019-04-21T06:15:56.158Z,13.10
2019-04-21T06:18:36.396Z,13.20
2019-04-21T06:21:00.160Z,13.20
2019-04-21T06:23:30.104Z,13.10
2019-04-21T06:28:41.335Z,12.90
2019-04-21T06:31:17.989Z,12.80
2019-04-21T06:33:45.968Z,12.70
2019-04-21T06:39:11.636Z,12.60
2019-04-21T06:41:37.954Z,12.60
2019-04-21T06:44:23.975Z,12.70
2019-04-21T06:46:45.850Z,12.70
2019-04-21T06:49:08.583Z,12.70
2019-04-21T06:51:42.958Z,12.80
2019-04-21T06:54:16.180Z,12.80
2019-04-21T06:57:00.817Z,12.90
2019-04-21T06:59:25.318Z,12.90
2019-04-21T07:01:56.713Z,13.00
2019-04-21T07:06:59.236Z,13.20
2019-04-21T07:09:31.109Z,13.20
2019-04-21T07:11:59.878Z,13.30
2019-04-21T07:14:32.034Z,13.40
2019-04-21T07:17:12.627Z,13.50
2019-04-21T07:19:49.720Z,13.60
2019-04-21T07:22:12.712Z,13.60
2019-04-21T07:24:45.817Z,13.70
2019-04-21T07:27:15.210Z,13.80
2019-04-21T07:29:56.565Z,13.80
2019-04-21T07:32:20.730Z,13.90
2019-04-21T07:34:57.830Z,14.00
2019-04-21T07:37:23.939Z,14.10
2019-04-21T07:39:54.959Z,14.20
2019-04-21T07:42:24.406Z,14.20
2019-04-21T07:44:53.542Z,14.30
2019-04-21T07:47:40.545Z,14.30
2019-04-21T07:50:14.623Z,14.40
2019-04-21T07:53:05.186Z,14.50
2019-04-21T07:57:56.149Z,14.60
2019-04-21T08:00:36.121Z,14.60
2019-04-21T08:03:19.566Z,14.70
2019-04-21T08:05:43.986Z,14.70
2019-04-21T08:08:04.839Z,14.80
2019-04-21T08:10:40.776Z,14.90
2019-04-21T08:13:22.057Z,15.00
2019-04-21T08:15:45.873Z,15.00
2019-04-21T08:18:21.085Z,15.10
2019-04-21T08:20:50.734Z,15.20
2019-04-21T08:23:25.652Z,15.30
2019-04-21T08:26:03.782Z,15.40
2019-04-21T08:28:26.260Z,15.50
2019-04-21T08:31:01.622Z,15.60
2019-04-21T08:38:35.876Z,15.90
2019-04-21T08:41:08.052Z,16.10
2019-04-21T08:43:40.877Z,16.20
2019-04-21T08:46:16.105Z,16.30
2019-04-21T08:48:48.023Z,16.50
2019-04-21T08:51:27.583Z,16.60
2019-04-21T08:56:52.969Z,17.30
2019-04-21T08:59:50.670Z,17.90
2019-04-21T09:03:02.525Z,18.70
2019-04-21T09:05:11.594Z,19.50
2019-04-21T09:07:56.053Z,20.00
2019-04-21T09:10:16.894Z,20.20
2019-04-21T09:12:51.761Z,20.50
2019-04-21T09:15:30.031Z,20.80
2019-04-21T09:17:48.985Z,21.10
2019-04-21T09:20:40.197Z,21.40
2019-04-21T09:23:00.731Z,21.40
2019-04-21T09:25:40.714Z,21.60
2019-04-21T09:28:00.561Z,21.90
2019-04-21T09:30:17.607Z,22.20
2019-04-21T09:32:52.257Z,22.50
2019-04-21T09:35:21.903Z,22.70
2019-04-21T09:37:58.861Z,23.00
2019-04-21T09:40:31.554Z,23.30
2019-04-21T09:43:02.629Z,23.40
2019-04-21T09:45:28.637Z,23.40
2019-04-21T09:48:06.166Z,23.50
2019-04-21T09:50:34.507Z,23.90
2019-04-21T09:53:14.614Z,24.10
2019-04-21T09:55:43.966Z,24.20
2019-04-21T09:58:18.122Z,24.30
2019-04-21T10:00:50.991Z,24.50
2019-04-21T10:03:15.718Z,24.80
2019-04-21T10:05:45.232Z,25.10
2019-04-21T10:08:16.649Z,25.50
2019-04-21T10:10:47.370Z,25.70
2019-04-21T10:13:17.794Z,25.80
2019-04-21T10:15:54.553Z,26.00
2019-04-21T10:18:25.174Z,26.20
2019-04-21T10:20:56.955Z,26.40
2019-04-21T10:23:27.526Z,26.50
2019-04-21T10:25:58.723Z,26.30
2019-04-21T10:28:29.104Z,26.30
2019-04-21T10:31:00.674Z,26.30
2019-04-21T10:33:32.502Z,26.40
2019-04-21T10:36:04.585Z,26.50
2019-04-21T10:38:40.813Z,26.70
2019-04-21T10:41:07.686Z,27.00
2019-04-21T10:43:38.361Z,27.20
2019-04-21T10:46:08.837Z,27.50
2019-04-21T10:48:39.452Z,27.60
2019-04-21T10:51:10.761Z,27.70
2019-04-21T10:53:42.843Z,27.80
2019-04-21T10:56:21.748Z,27.80
2019-04-21T10:58:47.226Z,27.90
2019-04-21T11:01:29.435Z,27.80
2019-04-21T11:04:23.543Z,27.90
2019-04-21T11:06:50.495Z,28.00
2019-04-21T11:09:22.051Z,28.00
2019-04-21T11:11:53.594Z,28.20
2019-04-21T11:14:25.361Z,28.50
2019-04-21T11:16:56.572Z,28.50
2019-04-21T11:19:28.475Z,28.20
2019-04-21T11:21:59.169Z,28.00
2019-04-21T11:24:29.493Z,28.10
2019-04-21T11:27:00.342Z,28.10
2019-04-21T11:29:33.086Z,28.30
2019-04-21T11:32:03.595Z,28.50
2019-04-21T11:34:33.996Z,28.70
2019-04-21T11:37:06.026Z,28.70
2019-04-21T11:39:46.265Z,28.80
2019-04-21T11:42:17.730Z,29.10
2019-04-21T11:44:49.439Z,29.00
2019-04-21T11:47:28.409Z,29.00
2019-04-21T11:49:59.065Z,29.10
2019-04-21T11:52:29.549Z,28.80
2019-04-21T11:55:00.553Z,28.40
2019-04-21T11:57:36.723Z,28.60
2019-04-21T12:00:03.950Z,28.90
2019-04-21T12:02:35.301Z,28.90
2019-04-21T12:05:07.569Z,28.80
2019-04-21T12:07:38.044Z,28.70
2019-04-21T12:10:09.234Z,29.00
2019-04-21T12:12:41.252Z,29.50
2019-04-21T12:15:14.075Z,29.80
2019-04-21T12:17:44.218Z,30.00
2019-04-21T12:20:14.811Z,30.10
2019-04-21T12:22:45.434Z,30.10
2019-04-21T12:25:17.076Z,30.10
2019-04-21T12:27:47.869Z,30.30
2019-04-21T12:30:19.886Z,30.60
2019-04-21T12:33:16.159Z,30.90
2019-04-21T12:35:48.172Z,31.20
2019-04-21T12:38:30.209Z,31.40
2019-04-21T12:40:51.043Z,31.80
2019-04-21T12:43:21.405Z,32.00
2019-04-21T12:45:51.913Z,32.00
2019-04-21T12:48:22.347Z,32.00
2019-04-21T12:50:54.112Z,31.80
2019-04-21T12:53:25.556Z,31.70
2019-04-21T12:55:57.775Z,31.80
2019-04-21T12:58:29.092Z,32.10
2019-04-21T13:01:00.925Z,32.10
2019-04-21T13:03:32.183Z,32.20
2019-04-21T13:06:03.516Z,32.50
2019-04-21T13:08:49.084Z,32.40
2019-04-21T13:11:08.198Z,32.20
2019-04-21T13:13:39.922Z,32.30
2019-04-21T13:16:11.600Z,32.60
2019-04-21T13:18:42.485Z,32.80
2019-04-21T13:21:14.028Z,32.90
2019-04-21T13:23:45.152Z,32.60
2019-04-21T13:26:27.205Z,32.40
2019-04-21T13:28:48.056Z,32.40
2019-04-21T13:31:18.501Z,32.60
2019-04-21T13:33:50.121Z,32.50
2019-04-21T13:36:21.340Z,32.50
2019-04-21T13:39:45.841Z,32.70
2019-04-21T13:42:02.884Z,33.00
2019-04-21T13:44:23.298Z,33.20
2019-04-21T13:46:54.582Z,33.40
2019-04-21T13:49:25.384Z,33.40
2019-04-21T13:51:56.110Z,33.40
2019-04-21T13:54:27.452Z,33.00
2019-04-21T13:56:58.649Z,33.10
2019-04-21T13:59:29.307Z,33.20
2019-04-21T14:02:00.489Z,33.40
2019-04-21T14:04:31.481Z,33.60
2019-04-21T14:07:02.493Z,33.70
2019-04-21T14:09:43.121Z,33.50
2019-04-21T14:12:05.431Z,33.20
2019-04-21T14:14:36.609Z,33.10
2019-04-21T14:17:07.142Z,33.00
2019-04-21T14:19:37.586Z,33.00
2019-04-21T14:22:11.622Z,32.80
2019-04-21T14:24:41.731Z,32.90
2019-04-21T14:27:12.253Z,32.90
2019-04-21T14:29:43.828Z,32.80
2019-04-21T14:32:16.023Z,32.90
2019-04-21T14:34:50.206Z,32.90
2019-04-21T14:37:20.453Z,32.50
2019-04-21T14:39:59.632Z,32.00
2019-04-21T14:42:24.268Z,31.50
2019-04-21T14:44:54.882Z,30.90
2019-04-21T14:47:44.183Z,30.40
2019-04-21T14:50:32.705Z,29.90
2019-04-21T14:53:34.134Z,29.60
2019-04-21T14:56:04.594Z,29.80
2019-04-21T14:58:35.108Z,30.20
2019-04-21T15:01:08.310Z,30.50
2019-04-21T15:03:39.575Z,30.90
2019-04-21T15:06:11.575Z,31.30
2019-04-21T15:08:42.919Z,31.60
2019-04-21T15:11:13.972Z,31.80
2019-04-21T15:13:45.930Z,32.00
2019-04-21T15:16:16.593Z,31.90
2019-04-21T15:18:46.970Z,31.80
2019-04-21T15:21:17.580Z,31.70
2019-04-21T15:23:48.438Z,31.50
2019-04-21T15:26:20.057Z,31.20
2019-04-21T15:28:51.065Z,31.30
2019-04-21T15:31:28.798Z,31.40
2019-04-21T15:33:54.929Z,31.50
2019-04-21T15:36:25.391Z,31.50
2019-04-21T15:38:56.149Z,31.40
2019-04-21T15:41:26.935Z,31.30
2019-04-21T15:43:59.699Z,31.30
2019-04-21T15:46:32.190Z,31.20
2019-04-21T15:49:02.780Z,30.80
2019-04-21T15:51:33.741Z,30.40
2019-04-21T15:54:04.947Z,30.20
2019-04-21T15:56:46.964Z,30.10
2019-04-21T15:59:40.187Z,30.00
2019-04-21T16:02:28.647Z,29.90
2019-04-21T16:04:59.064Z,29.60
2019-04-21T16:07:29.872Z,29.40
2019-04-21T16:10:01.957Z,29.30
2019-04-21T16:12:33.820Z,29.20
2019-04-21T16:15:05.168Z,29.20
2019-04-21T16:17:35.568Z,29.10
2019-04-21T16:20:08.004Z,29.10
2019-04-21T16:22:38.919Z,29.00
2019-04-21T16:25:10.814Z,28.70
2019-04-21T16:27:41.477Z,28.60
2019-04-21T16:30:12.925Z,28.50
2019-04-21T16:32:43.999Z,28.40
2019-04-21T16:35:16.445Z,28.30
2019-04-21T16:37:47.741Z,28.30
2019-04-21T16:40:19.317Z,28.20
2019-04-21T16:42:50.129Z,28.10
2019-04-21T16:45:21.437Z,28.00
2019-04-21T16:47:53.648Z,28.00
2019-04-21T16:50:25.716Z,28.00
2019-04-21T16:53:01.746Z,28.00
2019-04-21T16:55:41.369Z,27.90
2019-04-21T16:58:30.785Z,27.90
2019-04-21T17:01:10.989Z,27.90
2019-04-21T17:03:37.741Z,27.90
2019-04-21T17:06:09.050Z,27.90
2019-04-21T17:08:40.919Z,27.80
2019-04-21T17:11:18.797Z,27.80
2019-04-21T17:13:43.662Z,27.80
2019-04-21T17:16:44.699Z,27.70
2019-04-21T17:18:57.428Z,27.60
2019-04-21T17:21:19.401Z,27.60
2019-04-21T17:23:50.477Z,27.50
2019-04-21T17:26:21.432Z,27.50
2019-04-21T17:28:54.211Z,27.40
2019-04-21T17:31:26.527Z,27.40
2019-04-21T17:34:01.951Z,27.30
2019-04-21T17:36:29.568Z,27.20
2019-04-21T17:39:00.223Z,27.20
2019-04-21T17:41:36.410Z,27.10
2019-04-21T17:44:02.720Z,27.00
2019-04-21T17:46:42.107Z,26.90
2019-04-21T17:49:05.410Z,26.80
2019-04-21T17:52:09.790Z,26.40
2019-04-21T17:54:48.502Z,25.90
2019-04-21T17:57:36.271Z,25.20
2019-04-21T18:00:25.866Z,24.80
2019-04-21T18:02:43.161Z,24.60
2019-04-21T18:05:15.212Z,24.40
2019-04-21T18:07:45.033Z,24.20
2019-04-21T18:10:11.530Z,24.00
2019-04-21T18:12:40.073Z,23.90
2019-04-21T18:15:18.040Z,23.70
2019-04-21T18:17:34.236Z,23.50
2019-04-21T18:20:06.081Z,23.50
2019-04-21T18:23:18.629Z,23.40
2019-04-21T18:25:50.438Z,23.30
2019-04-21T18:28:12.550Z,23.10
2019-04-21T18:30:56.280Z,23.00
2019-04-21T18:33:32.017Z,22.80
2019-04-21T18:36:22.299Z,22.80
2019-04-21T18:39:10.312Z,22.80
2019-04-21T18:41:32.248Z,22.60
2019-04-21T18:47:13.888Z,22.30
2019-04-21T18:49:43.722Z,22.10
2019-04-21T18:52:45.332Z,22.00
2019-04-21T18:55:16.636Z,21.90
2019-04-21T18:57:42.433Z,21.90
2019-04-21T19:00:18.222Z,21.70
2019-04-21T19:02:47.705Z,21.70
2019-04-21T19:05:19.186Z,21.70
2019-04-21T19:08:06.985Z,21.60
2019-04-21T19:13:29.138Z,21.50
2019-04-21T19:15:41.361Z,21.40
2019-04-21T19:20:44.855Z,21.40
2019-04-21T19:23:21.461Z,21.30
2019-04-21T19:25:58.611Z,21.30
2019-04-21T19:28:16.399Z,21.30
2019-04-21T19:30:56.458Z,21.20
2019-04-21T19:33:18.721Z,21.10
2019-04-21T19:35:39.389Z,21.00
2019-04-21T19:38:13.683Z,20.90
2019-04-21T19:40:56.331Z,20.80
2019-04-21T19:43:35.880Z,20.70
2019-04-21T19:46:04.339Z,20.70
2019-04-21T19:48:46.921Z,20.60
2019-04-21T19:51:10.596Z,20.60
2019-04-21T19:53:37.177Z,20.60
2019-04-21T19:55:56.100Z,20.50
2019-04-21T19:58:33.011Z,20.40
2019-04-21T20:00:59.767Z,20.30
2019-04-21T20:03:30.647Z,20.20
2019-04-21T20:06:12.751Z,20.10
2019-04-21T20:08:46.974Z,20.10
2019-04-21T20:11:23.854Z,20.00
2019-04-21T20:14:18.897Z,20.00
2019-04-21T20:16:33.888Z,19.90
2019-04-21T20:18:48.093Z,19.90
2019-04-21T20:21:14.354Z,19.80
2019-04-21T20:23:46.616Z,19.80
2019-04-21T20:26:17.578Z,19.70
2019-04-21T20:28:59.282Z,19.70
2019-04-21T20:31:37.357Z,19.60
2019-04-21T20:34:14.054Z,19.50
2019-04-21T20:36:51.820Z,19.50
2019-04-21T20:39:07.251Z,19.40
2019-04-21T20:41:41.000Z,19.30
2019-04-21T20:44:20.863Z,19.30
2019-04-21T20:46:50.320Z,19.20
2019-04-21T20:49:19.277Z,19.20
2019-04-21T20:52:01.623Z,19.10
2019-04-21T20:54:30.296Z,19.00
2019-04-21T20:57:01.570Z,18.90
2019-04-21T20:59:28.645Z,18.90
2019-04-21T21:02:05.685Z,18.90
2019-04-21T21:04:29.604Z,18.80
2019-04-21T21:07:16.176Z,18.80
2019-04-21T21:09:41.450Z,18.70
2019-04-21T21:12:24.700Z,18.70
2019-04-21T21:14:42.590Z,18.60
2019-04-21T21:17:34.447Z,18.50
2019-04-21T21:19:53.655Z,18.50
2019-04-21T21:22:14.409Z,18.40
2019-04-21T21:24:52.013Z,18.40
2019-04-21T21:27:19.170Z,18.30
2019-04-21T21:29:56.564Z,18.20
2019-04-21T21:32:40.025Z,18.20
2019-04-21T21:35:03.788Z,18.10
2019-04-21T21:37:36.897Z,18.10
2019-04-21T21:40:11.180Z,18.00
2019-04-21T21:42:27.618Z,18.00
2019-04-21T21:44:58.641Z,17.90
2019-04-21T21:47:46.268Z,17.90
2019-04-21T21:50:08.868Z,17.80
2019-04-21T21:52:42.612Z,17.70
2019-04-21T21:55:01.591Z,17.70
2019-04-21T21:57:34.138Z,17.60
2019-04-21T22:00:10.753Z,17.60
2019-04-21T22:02:44.226Z,17.60
2019-04-21T22:05:15.068Z,17.50
2019-04-21T22:07:42.509Z,17.50
2019-04-21T22:10:13.178Z,17.50
2019-04-21T22:12:53.903Z,17.50
2019-04-21T22:15:22.210Z,17.50
2019-04-21T22:18:07.328Z,17.40
2019-04-21T22:20:37.796Z,17.40
2019-04-21T22:22:59.423Z,17.30
2019-04-21T22:25:29.833Z,17.30
2019-04-21T22:27:57.935Z,17.20
2019-04-21T22:30:36.580Z,17.20
2019-04-21T22:33:06.936Z,17.20
2019-04-21T22:35:41.813Z,17.10
2019-04-21T22:38:20.807Z,17.10
2019-04-21T22:40:50.470Z,17.10
2019-04-21T22:43:19.717Z,17.00
2019-04-21T22:45:41.340Z,17.00
2019-04-21T22:48:16.608Z,17.00
2019-04-21T22:50:44.498Z,17.00
2019-04-21T22:53:16.152Z,16.90
2019-04-21T22:55:49.562Z,16.80
2019-04-21T22:58:28.272Z,16.80
2019-04-21T23:00:56.431Z,16.70
2019-04-21T23:03:25.242Z,16.70
2019-04-21T23:05:55.910Z,16.70
2019-04-21T23:08:32.991Z,16.60
2019-04-21T23:11:03.491Z,16.60
2019-04-21T23:13:31.289Z,16.50
2019-04-21T23:16:04.832Z,16.50
2019-04-21T23:18:46.115Z,16.50
2019-04-21T23:21:21.164Z,16.50
2019-04-21T23:23:59.550Z,16.40
2019-04-21T23:26:25.770Z,16.40
2019-04-21T23:29:01.920Z,16.40
2019-04-21T23:31:34.220Z,16.30
2019-04-21T23:33:48.430Z,16.30
2019-04-21T23:36:24.142Z,16.20
2019-04-21T23:38:53.260Z,16.20
2019-04-21T23:41:27.279Z,16.10
2019-04-21T23:43:59.171Z,16.00
2019-04-21T23:46:31.930Z,16.00
2019-04-21T23:49:16.069Z,15.90
2019-04-21T23:51:43.520Z,15.90
2019-04-21T23:54:05.037Z,15.80
2019-04-21T23:56:41.958Z,15.80
2019-04-21T23:59:11.580Z,15.70
